createdAt,value
2018-02-25T00:00:47.606Z,0.00
2018-02-25T00:01:47.452Z,0.00
2018-02-25T00:03:40.303Z,0.00
2018-02-25T00:04:40.202Z,0.00
2018-02-25T00:06:33.061Z,0.00
2018-02-25T00:07:32.953Z,0.00
2018-02-25T00:09:25.809Z,0.00
2018-02-25T00:10:25.686Z,0.00
2018-02-25T00:12:18.592Z,0.00
2018-02-25T00:13:18.439Z,0.00
2018-02-25T00:15:11.333Z,0.00
2018-02-25T00:16:11.188Z,0.00
2018-02-25T00:18:04.085Z,0.00
2018-02-25T00:19:03.991Z,0.00
2018-02-25T00:20:56.838Z,0.00
2018-02-25T00:21:56.694Z,0.00
2018-02-25T00:23:49.585Z,0.00
2018-02-25T00:24:49.438Z,0.00
2018-02-25T00:26:42.314Z,0.00
2018-02-25T00:27:42.192Z,0.00
2018-02-25T00:29:35.065Z,0.00
2018-02-25T00:30:34.940Z,0.00
2018-02-25T00:32:27.800Z,0.00
2018-02-25T00:33:27.695Z,0.00
2018-02-25T00:35:20.646Z,0.00
2018-02-25T00:36:20.442Z,0.00
2018-02-25T00:38:13.299Z,0.00
2018-02-25T00:39:13.188Z,0.00
2018-02-25T00:41:06.787Z,0.00
2018-02-25T00:42:06.646Z,0.00
2018-02-25T00:43:59.513Z,0.00
2018-02-25T00:44:59.400Z,0.00
2018-02-25T00:46:52.295Z,0.00
2018-02-25T00:47:52.149Z,0.00
2018-02-25T00:49:45.008Z,0.00
2018-02-25T00:50:44.899Z,0.00
2018-02-25T00:52:37.785Z,0.00
2018-02-25T00:53:37.665Z,0.00
2018-02-25T00:55:30.508Z,0.00
2018-02-25T00:56:30.416Z,0.00
2018-02-25T00:58:23.275Z,0.00
2018-02-25T00:59:23.156Z,0.00
2018-02-25T01:01:16.009Z,0.00
2018-02-25T01:02:15.905Z,0.00
2018-02-25T01:04:08.774Z,0.00
2018-02-25T01:05:08.660Z,0.00
2018-02-25T01:07:01.580Z,0.00
2018-02-25T01:08:01.401Z,0.00
2018-02-25T01:09:54.271Z,0.00
2018-02-25T01:10:54.153Z,0.00
2018-02-25T01:12:47.669Z,0.00
2018-02-25T01:13:47.410Z,0.00
2018-02-25T01:15:40.281Z,0.00
2018-02-25T01:16:40.165Z,0.00
2018-02-25T01:18:33.054Z,0.00
2018-02-25T01:19:32.921Z,0.00
2018-02-25T01:21:25.796Z,0.00
2018-02-25T01:22:25.682Z,0.00
2018-02-25T01:24:18.530Z,0.00
2018-02-25T01:25:18.427Z,0.00
2018-02-25T01:27:11.284Z,0.00
2018-02-25T01:28:11.168Z,0.00
2018-02-25T01:30:04.042Z,0.00
2018-02-25T01:31:03.924Z,0.00
2018-02-25T01:32:56.797Z,0.00
2018-02-25T01:33:56.681Z,0.00
2018-02-25T01:35:50.061Z,0.00
2018-02-25T01:36:49.919Z,0.00
2018-02-25T01:38:42.953Z,0.00
2018-02-25T01:39:42.770Z,0.00
2018-02-25T01:41:35.626Z,0.00
2018-02-25T01:42:35.513Z,0.00
2018-02-25T01:44:28.410Z,0.00
2018-02-25T01:45:28.288Z,0.00
2018-02-25T01:47:21.123Z,0.00
2018-02-25T01:48:21.018Z,0.00
2018-02-25T01:50:13.891Z,0.00
2018-02-25T01:51:13.772Z,0.00
2018-02-25T01:53:06.642Z,0.00
2018-02-25T01:54:06.516Z,0.00
2018-02-25T01:55:59.962Z,0.00
2018-02-25T01:56:59.308Z,0.00
2018-02-25T01:58:52.130Z,0.00
2018-02-25T01:59:52.023Z,0.00
2018-02-25T02:01:45.091Z,0.00
2018-02-25T02:02:44.974Z,0.00
2018-02-25T02:04:37.870Z,0.00
2018-02-25T02:05:37.727Z,0.00
2018-02-25T02:07:30.626Z,0.00
2018-02-25T02:08:30.464Z,0.00
2018-02-25T02:10:23.335Z,0.00
2018-02-25T02:11:23.225Z,0.00
2018-02-25T02:13:16.134Z,0.00
2018-02-25T02:14:15.977Z,0.00
2018-02-25T02:16:08.836Z,0.00
2018-02-25T02:17:08.742Z,0.00
2018-02-25T02:19:02.726Z,0.00
2018-02-25T02:20:02.501Z,0.00
2018-02-25T02:21:55.907Z,0.00
2018-02-25T02:22:55.759Z,0.00
2018-02-25T02:24:51.744Z,0.00
2018-02-25T02:25:51.484Z,0.00
2018-02-25T02:27:44.761Z,0.00
2018-02-25T02:28:44.640Z,0.00
2018-02-25T02:30:42.733Z,0.00
2018-02-25T02:31:42.332Z,0.00
2018-02-25T02:33:35.164Z,0.00
2018-02-25T02:34:35.052Z,0.00
2018-02-25T02:36:27.960Z,0.00
2018-02-25T02:37:27.796Z,0.00
2018-02-25T02:39:20.659Z,0.00
2018-02-25T02:40:20.546Z,0.00
2018-02-25T02:42:13.431Z,0.00
2018-02-25T02:43:13.298Z,0.00
2018-02-25T02:45:06.675Z,0.00
2018-02-25T02:46:06.556Z,0.00
2018-02-25T02:47:59.451Z,0.00
2018-02-25T02:48:59.316Z,0.00
2018-02-25T02:50:52.068Z,0.00
2018-02-25T02:51:51.957Z,0.00
2018-02-25T02:53:44.750Z,0.00
2018-02-25T02:54:44.611Z,0.00
2018-02-25T02:56:37.976Z,0.00
2018-02-25T02:57:37.862Z,0.00
2018-02-25T02:59:30.736Z,0.00
2018-02-25T03:00:30.625Z,0.00
2018-02-25T03:02:23.474Z,0.00
2018-02-25T03:03:23.374Z,0.00
2018-02-25T03:05:16.338Z,0.00
2018-02-25T03:06:16.214Z,0.00
2018-02-25T03:08:09.082Z,0.00
2018-02-25T03:09:08.968Z,0.00
2018-02-25T03:11:01.887Z,0.00
2018-02-25T03:12:01.711Z,0.00
2018-02-25T03:13:55.093Z,0.00
2018-02-25T03:14:55.100Z,0.00
2018-02-25T03:16:48.903Z,0.00
2018-02-25T03:17:48.754Z,0.00
2018-02-25T03:19:41.519Z,0.00
2018-02-25T03:20:41.427Z,0.00
2018-02-25T03:22:34.363Z,0.00
2018-02-25T03:23:34.143Z,0.00
2018-02-25T03:25:27.018Z,0.00
2018-02-25T03:26:26.897Z,0.00
2018-02-25T03:28:19.772Z,0.00
2018-02-25T03:29:19.648Z,0.00
2018-02-25T03:31:12.508Z,0.00
2018-02-25T03:32:12.391Z,0.00
2018-02-25T03:34:05.265Z,0.00
2018-02-25T03:35:05.149Z,0.00
2018-02-25T03:36:58.006Z,0.00
2018-02-25T03:37:57.893Z,0.00
2018-02-25T03:39:51.031Z,0.00
2018-02-25T03:40:50.657Z,0.00
2018-02-25T03:42:43.526Z,0.00
2018-02-25T03:43:43.387Z,0.00
2018-02-25T03:45:36.355Z,0.00
2018-02-25T03:46:36.138Z,0.00
2018-02-25T03:48:29.040Z,0.00
2018-02-25T03:49:28.899Z,0.00
2018-02-25T03:51:21.963Z,0.00
2018-02-25T03:52:21.840Z,0.00
2018-02-25T03:54:14.702Z,0.00
2018-02-25T03:55:14.596Z,0.00
2018-02-25T03:57:07.496Z,0.00
2018-02-25T03:58:07.352Z,0.00
2018-02-25T04:00:00.208Z,0.00
2018-02-25T04:01:00.094Z,0.00
2018-02-25T04:02:52.991Z,0.00
2018-02-25T04:03:52.840Z,0.00
2018-02-25T04:05:45.710Z,0.00
2018-02-25T04:06:45.597Z,0.00
2018-02-25T04:08:38.980Z,0.00
2018-02-25T04:09:38.856Z,0.00
2018-02-25T04:11:31.762Z,0.00
2018-02-25T04:12:31.635Z,0.00
2018-02-25T04:14:24.516Z,0.00
2018-02-25T04:15:24.353Z,0.00
2018-02-25T04:17:17.227Z,0.00
2018-02-25T04:18:17.164Z,0.00
2018-02-25T04:20:10.515Z,0.00
2018-02-25T04:21:10.422Z,0.00
2018-02-25T04:23:03.281Z,0.00
2018-02-25T04:24:03.182Z,0.00
2018-02-25T04:25:56.125Z,0.00
2018-02-25T04:26:56.204Z,0.00
2018-02-25T04:28:48.838Z,0.00
2018-02-25T04:29:48.723Z,0.00
2018-02-25T04:31:41.650Z,0.00
2018-02-25T04:32:41.463Z,0.00
2018-02-25T04:34:35.345Z,0.00
2018-02-25T04:35:35.249Z,0.00
2018-02-25T04:37:28.108Z,0.00
2018-02-25T04:38:28.010Z,0.00
2018-02-25T04:40:20.842Z,0.00
2018-02-25T04:41:20.741Z,0.00
2018-02-25T04:43:14.083Z,0.00
2018-02-25T04:44:13.482Z,0.00
2018-02-25T04:46:06.367Z,0.00
2018-02-25T04:47:06.233Z,0.00
2018-02-25T04:48:59.017Z,0.00
2018-02-25T04:49:58.901Z,0.00
2018-02-25T04:51:51.646Z,0.00
2018-02-25T04:52:51.559Z,0.00
2018-02-25T04:54:44.825Z,0.00
2018-02-25T04:55:44.702Z,0.00
2018-02-25T04:57:37.456Z,0.00
2018-02-25T04:58:37.336Z,0.00
2018-02-25T05:00:30.625Z,0.00
2018-02-25T05:01:30.491Z,0.00
2018-02-25T05:03:23.870Z,0.00
2018-02-25T05:04:23.757Z,0.00
2018-02-25T05:06:16.636Z,0.00
2018-02-25T05:07:16.505Z,0.00
2018-02-25T05:09:09.889Z,0.00
2018-02-25T05:10:09.775Z,0.00
2018-02-25T05:12:02.686Z,0.00
2018-02-25T05:13:02.564Z,0.00
2018-02-25T05:14:55.390Z,0.00
2018-02-25T05:15:55.351Z,0.00
2018-02-25T05:17:48.154Z,0.00
2018-02-25T05:18:48.015Z,0.00
2018-02-25T05:20:41.819Z,0.00
2018-02-25T05:21:41.696Z,0.00
2018-02-25T05:23:34.580Z,0.00
2018-02-25T05:24:34.448Z,0.00
2018-02-25T05:26:27.295Z,0.00
2018-02-25T05:27:27.209Z,0.00
2018-02-25T05:29:20.143Z,0.00
2018-02-25T05:30:19.932Z,0.00
2018-02-25T05:32:12.801Z,0.00
2018-02-25T05:33:12.691Z,0.00
2018-02-25T05:35:05.554Z,0.00
2018-02-25T05:36:05.429Z,0.00
2018-02-25T05:37:58.333Z,0.00
2018-02-25T05:38:58.244Z,0.00
2018-02-25T05:40:51.068Z,0.00
2018-02-25T05:41:50.933Z,0.00
2018-02-25T05:43:43.993Z,0.00
2018-02-25T05:44:43.892Z,0.00
2018-02-25T05:46:36.675Z,0.00
2018-02-25T05:47:36.539Z,0.00
2018-02-25T05:49:29.512Z,0.00
2018-02-25T05:50:29.462Z,0.00
2018-02-25T05:52:22.269Z,0.00
2018-02-25T05:53:22.158Z,4.00
2018-02-25T05:55:15.001Z,8.00
2018-02-25T05:56:14.887Z,8.00
2018-02-25T05:58:07.772Z,8.00
2018-02-25T05:59:07.643Z,8.00
2018-02-25T06:01:00.554Z,12.00
2018-02-25T06:02:00.410Z,16.00
2018-02-25T06:03:53.256Z,20.00
2018-02-25T06:04:53.137Z,24.00
2018-02-25T06:06:46.524Z,32.00
2018-02-25T06:07:46.397Z,36.00
2018-02-25T06:09:39.270Z,44.00
2018-02-25T06:10:39.144Z,52.00
2018-02-25T06:12:32.052Z,64.00
2018-02-25T06:13:31.959Z,72.00
2018-02-25T06:15:25.334Z,92.00
2018-02-25T06:16:24.667Z,100.00
2018-02-25T06:18:17.503Z,124.00
2018-02-25T06:19:17.398Z,136.00
2018-02-25T06:21:10.298Z,160.00
2018-02-25T06:22:10.143Z,172.00
2018-02-25T06:24:03.007Z,200.00
2018-02-25T06:25:02.897Z,216.00
2018-02-25T06:26:55.765Z,248.00
2018-02-25T06:27:55.646Z,260.00
2018-02-25T06:29:48.512Z,292.00
2018-02-25T06:30:48.413Z,312.00
2018-02-25T06:32:41.794Z,344.00
2018-02-25T06:33:41.658Z,364.00
2018-02-25T06:35:34.513Z,396.00
2018-02-25T06:36:34.443Z,412.00
2018-02-25T06:38:27.284Z,448.00
2018-02-25T06:39:27.147Z,468.00
2018-02-25T06:41:20.022Z,500.00
2018-02-25T06:42:19.909Z,512.00
2018-02-25T06:44:12.775Z,548.00
2018-02-25T06:45:12.649Z,568.00
2018-02-25T06:47:05.615Z,596.00
2018-02-25T06:48:05.510Z,612.00
2018-02-25T06:49:58.378Z,644.00
2018-02-25T06:50:58.262Z,660.00
2018-02-25T06:52:51.031Z,684.00
2018-02-25T06:53:50.904Z,700.00
2018-02-25T06:55:43.689Z,732.00
2018-02-25T06:56:43.546Z,748.00
2018-02-25T06:58:36.431Z,788.00
2018-02-25T06:59:36.324Z,808.00
2018-02-25T07:01:29.272Z,860.00
2018-02-25T07:02:29.183Z,884.00
2018-02-25T07:04:21.931Z,940.00
2018-02-25T07:05:21.797Z,968.00
2018-02-25T07:07:14.581Z,1004.00
2018-02-25T07:08:14.444Z,1024.00
2018-02-25T07:10:07.204Z,1060.00
2018-02-25T07:11:07.099Z,1076.00
2018-02-25T07:12:59.987Z,1108.00
2018-02-25T07:13:59.784Z,1124.00
2018-02-25T07:15:52.493Z,1152.00
2018-02-25T07:16:52.394Z,1164.00
2018-02-25T07:18:45.277Z,1192.00
2018-02-25T07:19:45.156Z,1208.00
2018-02-25T07:21:37.903Z,1236.00
2018-02-25T07:22:37.783Z,1252.00
2018-02-25T07:24:30.559Z,1272.00
2018-02-25T07:25:30.436Z,1288.00
2018-02-25T07:27:23.397Z,1316.00
2018-02-25T07:28:23.277Z,1328.00
2018-02-25T07:30:16.068Z,1356.00
2018-02-25T07:31:15.925Z,1368.00
2018-02-25T07:33:08.764Z,1396.00
2018-02-25T07:34:08.575Z,1408.00
2018-02-25T07:36:01.352Z,1436.00
2018-02-25T07:37:01.222Z,1448.00
2018-02-25T07:38:53.984Z,1476.00
2018-02-25T07:39:53.882Z,1492.00
2018-02-25T07:41:47.151Z,1516.00
2018-02-25T07:42:47.030Z,1528.00
2018-02-25T07:44:40.342Z,1548.00
2018-02-25T07:45:40.189Z,1556.00
2018-02-25T07:47:32.963Z,1580.00
2018-02-25T07:48:32.838Z,1592.00
2018-02-25T07:50:25.609Z,1612.00
2018-02-25T07:51:25.537Z,1624.00
2018-02-25T07:53:18.264Z,1640.00
2018-02-25T07:54:18.126Z,1656.00
2018-02-25T07:56:10.989Z,1668.00
2018-02-25T07:57:10.909Z,1680.00
2018-02-25T07:59:03.647Z,1704.00
2018-02-25T08:00:03.538Z,1708.00
2018-02-25T08:01:56.312Z,1728.00
2018-02-25T08:02:56.190Z,1740.00
2018-02-25T08:04:48.956Z,1760.00
2018-02-25T08:05:48.830Z,1768.00
2018-02-25T08:07:43.534Z,1784.00
2018-02-25T08:08:43.435Z,1796.00
2018-02-25T08:10:36.276Z,1804.00
2018-02-25T08:11:36.086Z,1820.00
2018-02-25T08:13:28.958Z,1840.00
2018-02-25T08:14:28.911Z,1848.00
2018-02-25T08:16:21.798Z,1876.00
2018-02-25T08:17:21.561Z,1884.00
2018-02-25T08:19:16.036Z,1900.00
2018-02-25T08:20:15.856Z,1900.00
2018-02-25T08:22:08.755Z,1928.00
2018-02-25T08:23:08.572Z,1928.00
2018-02-25T08:25:01.372Z,1944.00
2018-02-25T08:26:01.292Z,1960.00
2018-02-25T08:27:53.958Z,1964.00
2018-02-25T08:28:53.790Z,1984.00
2018-02-25T08:30:47.122Z,2000.00
2018-02-25T08:31:47.105Z,1996.00
2018-02-25T08:33:39.708Z,2000.00
2018-02-25T08:34:39.629Z,2004.00
2018-02-25T08:36:32.405Z,2016.00
2018-02-25T08:37:32.394Z,2036.00
2018-02-25T08:39:25.014Z,2032.00
2018-02-25T08:40:24.891Z,2048.00
2018-02-25T08:42:17.682Z,2048.00
2018-02-25T08:43:17.535Z,2052.00
2018-02-25T08:45:10.323Z,2068.00
2018-02-25T08:46:10.185Z,2072.00
2018-02-25T08:48:02.970Z,2084.00
2018-02-25T08:49:02.861Z,2092.00
2018-02-25T08:50:55.585Z,2112.00
2018-02-25T08:51:55.483Z,2116.00
2018-02-25T08:53:48.286Z,2140.00
2018-02-25T08:54:48.125Z,2156.00
2018-02-25T08:56:41.537Z,2164.00
2018-02-25T08:57:41.384Z,2168.00
2018-02-25T08:59:34.345Z,2180.00
2018-02-25T09:00:34.138Z,2180.00
2018-02-25T09:02:26.898Z,2192.00
2018-02-25T09:03:26.823Z,2212.00
2018-02-25T09:05:19.566Z,2216.00
2018-02-25T09:06:19.436Z,2224.00
2018-02-25T09:08:12.192Z,2232.00
2018-02-25T09:09:12.087Z,2236.00
2018-02-25T09:11:04.956Z,2248.00
2018-02-25T09:12:04.830Z,2252.00
2018-02-25T09:13:57.796Z,2236.00
2018-02-25T09:14:57.676Z,2232.00
2018-02-25T09:16:50.467Z,2224.00
2018-02-25T09:17:50.349Z,2208.00
2018-02-25T09:19:43.081Z,2168.00
2018-02-25T09:20:42.980Z,2156.00
2018-02-25T09:22:35.782Z,2152.00
2018-02-25T09:23:35.627Z,2160.00
2018-02-25T09:25:28.380Z,2152.00
2018-02-25T09:26:28.289Z,2132.00
2018-02-25T09:28:21.620Z,2128.00
2018-02-25T09:29:21.457Z,2148.00
2018-02-25T09:31:14.214Z,2184.00
2018-02-25T09:32:14.091Z,2208.00
2018-02-25T09:34:06.871Z,2232.00
2018-02-25T09:35:06.738Z,2268.00
2018-02-25T09:36:59.488Z,2272.00
2018-02-25T09:37:59.386Z,2308.00
2018-02-25T09:39:52.212Z,2316.00
2018-02-25T09:40:52.030Z,2332.00
2018-02-25T09:42:44.779Z,2360.00
2018-02-25T09:43:44.668Z,2376.00
2018-02-25T09:45:37.433Z,2384.00
2018-02-25T09:46:37.322Z,2408.00
2018-02-25T09:48:30.068Z,2452.00
2018-02-25T09:49:29.979Z,2476.00
2018-02-25T09:51:22.758Z,2520.00
2018-02-25T09:52:22.611Z,2512.00
2018-02-25T09:54:15.385Z,2556.00
2018-02-25T09:55:15.261Z,2600.00
2018-02-25T09:57:08.053Z,2608.00
2018-02-25T09:58:07.913Z,2644.00
2018-02-25T10:00:00.660Z,2560.00
2018-02-25T10:01:00.565Z,2568.00
2018-02-25T10:02:53.327Z,2568.00
2018-02-25T10:03:53.207Z,2552.00
2018-02-25T10:05:45.960Z,2564.00
2018-02-25T10:06:45.861Z,2588.00
2018-02-25T10:08:38.628Z,2644.00
2018-02-25T10:09:38.507Z,2704.00
2018-02-25T10:11:31.773Z,2756.00
2018-02-25T10:12:31.648Z,2756.00
2018-02-25T10:14:24.446Z,2732.00
2018-02-25T10:15:24.349Z,2780.00
2018-02-25T10:17:17.090Z,2800.00
2018-02-25T10:18:16.945Z,2800.00
2018-02-25T10:20:09.735Z,2792.00
2018-02-25T10:21:09.595Z,2756.00
2018-02-25T10:23:02.371Z,2748.00
2018-02-25T10:24:02.256Z,2748.00
2018-02-25T10:25:55.213Z,2796.00
2018-02-25T10:26:55.016Z,2788.00
2018-02-25T10:28:47.755Z,2812.00
2018-02-25T10:29:47.643Z,2832.00
2018-02-25T10:31:40.538Z,2840.00
2018-02-25T10:32:40.441Z,2796.00
2018-02-25T10:34:33.144Z,2844.00
2018-02-25T10:35:33.039Z,2872.00
2018-02-25T10:37:25.921Z,2920.00
2018-02-25T10:38:25.794Z,2976.00
2018-02-25T10:40:18.651Z,3028.00
2018-02-25T10:41:18.533Z,3100.00
2018-02-25T10:43:11.404Z,3164.00
2018-02-25T10:44:11.283Z,3144.00
2018-02-25T10:46:04.152Z,3100.00
2018-02-25T10:47:04.036Z,3080.00
2018-02-25T10:48:56.818Z,3104.00
2018-02-25T10:49:56.676Z,3080.00
2018-02-25T10:51:49.946Z,3128.00
2018-02-25T10:52:49.837Z,3100.00
2018-02-25T10:54:42.629Z,3156.00
2018-02-25T10:55:42.491Z,3132.00
2018-02-25T10:57:35.356Z,3112.00
2018-02-25T10:58:35.227Z,3152.00
2018-02-25T11:00:28.024Z,3144.00
2018-02-25T11:01:27.894Z,3172.00
2018-02-25T11:03:20.637Z,3160.00
2018-02-25T11:04:20.530Z,3184.00
2018-02-25T11:06:13.413Z,3160.00
2018-02-25T11:07:13.272Z,3156.00
2018-02-25T11:09:06.128Z,3120.00
2018-02-25T11:10:06.104Z,3168.00
2018-02-25T11:11:58.789Z,3196.00
2018-02-25T11:12:58.681Z,3224.00
2018-02-25T11:14:51.537Z,3260.00
2018-02-25T11:15:51.416Z,3256.00
2018-02-25T11:17:44.308Z,3220.00
2018-02-25T11:18:44.177Z,3228.00
2018-02-25T11:20:37.038Z,3196.00
2018-02-25T11:21:36.937Z,3208.00
2018-02-25T11:23:29.730Z,3204.00
2018-02-25T11:24:29.585Z,3128.00
2018-02-25T11:26:22.444Z,3072.00
2018-02-25T11:27:22.329Z,3084.00
2018-02-25T11:29:15.286Z,3156.00
2018-02-25T11:30:15.201Z,3184.00
2018-02-25T11:32:08.048Z,3164.00
2018-02-25T11:33:07.926Z,3184.00
2018-02-25T11:35:00.814Z,3284.00
2018-02-25T11:36:00.818Z,3284.00
2018-02-25T11:37:53.528Z,3256.00
2018-02-25T11:38:53.474Z,3264.00
2018-02-25T11:40:46.306Z,3140.00
2018-02-25T11:41:46.218Z,3132.00
2018-02-25T11:43:39.029Z,3168.00
2018-02-25T11:44:38.918Z,3164.00
2018-02-25T11:46:31.796Z,3212.00
2018-02-25T11:47:31.682Z,3204.00
2018-02-25T11:49:24.542Z,3092.00
2018-02-25T11:50:24.422Z,3084.00
2018-02-25T11:52:17.297Z,3020.00
2018-02-25T11:53:17.170Z,2972.00
2018-02-25T11:55:10.017Z,2868.00
2018-02-25T11:56:09.924Z,2824.00
2018-02-25T11:58:02.803Z,2732.00
2018-02-25T11:59:02.667Z,2720.00
2018-02-25T12:00:55.553Z,2624.00
2018-02-25T12:01:55.426Z,2608.00
2018-02-25T12:03:48.294Z,2604.00
2018-02-25T12:04:48.183Z,2616.00
2018-02-25T12:06:41.016Z,2580.00
2018-02-25T12:07:40.922Z,2568.00
2018-02-25T12:09:34.071Z,2508.00
2018-02-25T12:10:33.668Z,2520.00
2018-02-25T12:12:26.529Z,2548.00
2018-02-25T12:13:26.416Z,2560.00
2018-02-25T12:15:19.346Z,2540.00
2018-02-25T12:16:19.166Z,2536.00
2018-02-25T12:18:12.030Z,2496.00
2018-02-25T12:19:11.917Z,2460.00
2018-02-25T12:21:05.001Z,2480.00
2018-02-25T12:22:04.868Z,2464.00
2018-02-25T12:23:57.716Z,2584.00
2018-02-25T12:24:57.623Z,2640.00
2018-02-25T12:26:50.504Z,2692.00
2018-02-25T12:27:50.368Z,2764.00
2018-02-25T12:29:43.233Z,2804.00
2018-02-25T12:30:43.153Z,2696.00
2018-02-25T12:32:36.004Z,2452.00
2018-02-25T12:33:35.876Z,2428.00
2018-02-25T12:35:28.773Z,2368.00
2018-02-25T12:36:28.653Z,2356.00
2018-02-25T12:38:21.492Z,2424.00
2018-02-25T12:39:21.366Z,2432.00
2018-02-25T12:41:14.327Z,2460.00
2018-02-25T12:42:14.214Z,2460.00
2018-02-25T12:44:07.509Z,2440.00
2018-02-25T12:45:07.378Z,2424.00
2018-02-25T12:47:00.240Z,2448.00
2018-02-25T12:48:00.127Z,2440.00
2018-02-25T12:49:52.987Z,2476.00
2018-02-25T12:50:52.877Z,2484.00
2018-02-25T12:52:45.731Z,2476.00
2018-02-25T12:53:45.622Z,2480.00
2018-02-25T12:55:38.486Z,2496.00
2018-02-25T12:56:38.865Z,2456.00
2018-02-25T12:58:31.240Z,2432.00
2018-02-25T12:59:31.126Z,2428.00
2018-02-25T13:01:24.021Z,2456.00
2018-02-25T13:02:23.877Z,2484.00
2018-02-25T13:04:16.739Z,2500.00
2018-02-25T13:05:16.621Z,2516.00
2018-02-25T13:07:09.494Z,2648.00
2018-02-25T13:08:09.378Z,2676.00
2018-02-25T13:10:02.240Z,2780.00
2018-02-25T13:11:02.120Z,2764.00
2018-02-25T13:12:55.006Z,2876.00
2018-02-25T13:13:54.866Z,2960.00
2018-02-25T13:15:47.740Z,2736.00
2018-02-25T13:16:47.676Z,2972.00
2018-02-25T13:18:40.607Z,2968.00
2018-02-25T13:19:40.367Z,3088.00
2018-02-25T13:21:34.173Z,2904.00
2018-02-25T13:22:34.253Z,2696.00
2018-02-25T13:24:31.944Z,2888.00
2018-02-25T13:25:31.820Z,2680.00
2018-02-25T13:27:24.690Z,2596.00
2018-02-25T13:28:24.557Z,2524.00
2018-02-25T13:30:17.439Z,2464.00
2018-02-25T13:31:17.304Z,2348.00
2018-02-25T13:33:10.172Z,2264.00
2018-02-25T13:34:10.059Z,2240.00
2018-02-25T13:36:02.934Z,2276.00
2018-02-25T13:37:02.808Z,2224.00
2018-02-25T13:38:56.170Z,2236.00
2018-02-25T13:39:56.064Z,2176.00
2018-02-25T13:41:48.991Z,2140.00
2018-02-25T13:42:48.821Z,2088.00
2018-02-25T13:44:42.184Z,2040.00
2018-02-25T13:45:42.075Z,2036.00
2018-02-25T13:47:34.959Z,2008.00
2018-02-25T13:48:34.845Z,1940.00
2018-02-25T13:50:28.192Z,1900.00
2018-02-25T13:51:28.095Z,1876.00
2018-02-25T13:53:20.958Z,1840.00
2018-02-25T13:54:20.837Z,1824.00
2018-02-25T13:56:14.200Z,1804.00
2018-02-25T13:57:14.099Z,1784.00
2018-02-25T13:59:06.986Z,1764.00
2018-02-25T14:00:06.847Z,1752.00
2018-02-25T14:01:59.720Z,1724.00
2018-02-25T14:02:59.602Z,1700.00
2018-02-25T14:04:52.488Z,1636.00
2018-02-25T14:05:52.351Z,1624.00
2018-02-25T14:07:45.348Z,1604.00
2018-02-25T14:08:45.211Z,1580.00
2018-02-25T14:10:38.069Z,1536.00
2018-02-25T14:11:37.963Z,1504.00
2018-02-25T14:13:30.805Z,1392.00
2018-02-25T14:14:30.719Z,1312.00
2018-02-25T14:16:23.902Z,1168.00
2018-02-25T14:17:23.768Z,1112.00
2018-02-25T14:19:16.663Z,1052.00
2018-02-25T14:20:16.523Z,1032.00
2018-02-25T14:22:10.997Z,1012.00
2018-02-25T14:23:10.584Z,1008.00
2018-02-25T14:25:03.556Z,1008.00
2018-02-25T14:26:03.438Z,1008.00
2018-02-25T14:27:56.311Z,996.00
2018-02-25T14:28:56.192Z,992.00
2018-02-25T14:30:49.051Z,976.00
2018-02-25T14:31:48.939Z,976.00
2018-02-25T14:33:41.819Z,968.00
2018-02-25T14:34:41.683Z,964.00
2018-02-25T14:36:34.571Z,956.00
2018-02-25T14:37:34.438Z,952.00
2018-02-25T14:39:27.322Z,924.00
2018-02-25T14:40:27.191Z,908.00
2018-02-25T14:42:20.048Z,892.00
2018-02-25T14:43:19.930Z,904.00
2018-02-25T14:45:13.312Z,940.00
2018-02-25T14:46:13.195Z,964.00
2018-02-25T14:48:06.055Z,1008.00
2018-02-25T14:49:05.961Z,1036.00
2018-02-25T14:50:58.842Z,1092.00
2018-02-25T14:51:58.698Z,1112.00
2018-02-25T14:53:51.563Z,1132.00
2018-02-25T14:54:51.454Z,1136.00
2018-02-25T14:56:44.351Z,1132.00
2018-02-25T14:57:44.196Z,1124.00
2018-02-25T14:59:37.069Z,1096.00
2018-02-25T15:00:36.949Z,1080.00
2018-02-25T15:02:29.824Z,1040.00
2018-02-25T15:03:29.702Z,1016.00
2018-02-25T15:05:22.590Z,972.00
2018-02-25T15:06:22.452Z,948.00
2018-02-25T15:08:15.444Z,908.00
2018-02-25T15:09:15.315Z,880.00
2018-02-25T15:11:08.881Z,832.00
2018-02-25T15:12:08.756Z,808.00
2018-02-25T15:14:01.921Z,764.00
2018-02-25T15:15:01.524Z,740.00
2018-02-25T15:16:54.375Z,716.00
2018-02-25T15:17:54.281Z,704.00
2018-02-25T15:19:47.128Z,708.00
2018-02-25T15:20:47.028Z,708.00
2018-02-25T15:22:40.478Z,704.00
2018-02-25T15:23:40.280Z,696.00
2018-02-25T15:25:33.158Z,680.00
2018-02-25T15:26:33.102Z,668.00
2018-02-25T15:28:25.930Z,632.00
2018-02-25T15:29:25.777Z,608.00
2018-02-25T15:31:18.681Z,572.00
2018-02-25T15:32:18.547Z,548.00
2018-02-25T15:34:12.463Z,504.00
2018-02-25T15:35:12.310Z,484.00
2018-02-25T15:37:05.168Z,444.00
2018-02-25T15:38:05.045Z,424.00
2018-02-25T15:39:57.898Z,388.00
2018-02-25T15:40:57.793Z,368.00
2018-02-25T15:42:50.680Z,340.00
2018-02-25T15:43:50.545Z,328.00
2018-02-25T15:45:43.402Z,304.00
2018-02-25T15:46:43.302Z,300.00
2018-02-25T15:48:36.387Z,288.00
2018-02-25T15:49:36.293Z,284.00
2018-02-25T15:51:29.112Z,276.00
2018-02-25T15:52:29.009Z,276.00
2018-02-25T15:54:21.864Z,268.00
2018-02-25T15:55:21.749Z,268.00
2018-02-25T15:57:14.612Z,264.00
2018-02-25T15:58:14.501Z,256.00
2018-02-25T16:00:07.377Z,248.00
2018-02-25T16:01:07.258Z,240.00
2018-02-25T16:03:01.065Z,228.00
2018-02-25T16:04:00.918Z,220.00
2018-02-25T16:05:53.797Z,208.00
2018-02-25T16:06:53.663Z,208.00
2018-02-25T16:08:46.530Z,200.00
2018-02-25T16:09:46.416Z,196.00
2018-02-25T16:11:39.376Z,196.00
2018-02-25T16:12:39.186Z,192.00
2018-02-25T16:14:32.101Z,188.00
2018-02-25T16:15:31.923Z,188.00
2018-02-25T16:17:24.821Z,184.00
2018-02-25T16:18:24.704Z,184.00
2018-02-25T16:20:17.522Z,180.00
2018-02-25T16:21:17.416Z,172.00
2018-02-25T16:23:10.288Z,160.00
2018-02-25T16:24:10.187Z,156.00
2018-02-25T16:26:03.031Z,144.00
2018-02-25T16:27:02.907Z,140.00
2018-02-25T16:28:55.788Z,128.00
2018-02-25T16:29:55.658Z,120.00
2018-02-25T16:31:49.035Z,112.00
2018-02-25T16:32:48.928Z,108.00
2018-02-25T16:34:42.325Z,100.00
2018-02-25T16:35:42.188Z,92.00
2018-02-25T16:37:35.053Z,84.00
2018-02-25T16:38:34.937Z,84.00
2018-02-25T16:40:27.857Z,72.00
2018-02-25T16:41:27.705Z,68.00
2018-02-25T16:43:20.536Z,60.00
2018-02-25T16:44:20.440Z,56.00
2018-02-25T16:46:13.313Z,44.00
2018-02-25T16:47:13.192Z,40.00
2018-02-25T16:49:06.048Z,28.00
2018-02-25T16:50:05.937Z,24.00
2018-02-25T16:51:59.262Z,20.00
2018-02-25T16:52:58.679Z,20.00
2018-02-25T16:54:51.544Z,12.00
2018-02-25T16:55:51.434Z,12.00
2018-02-25T16:57:44.524Z,8.00
2018-02-25T16:58:44.400Z,8.00
2018-02-25T17:00:37.290Z,8.00
2018-02-25T17:01:37.140Z,4.00
2018-02-25T17:03:30.033Z,4.00
2018-02-25T17:04:29.891Z,8.00
2018-02-25T17:06:22.742Z,8.00
2018-02-25T17:07:22.643Z,4.00
2018-02-25T17:09:15.557Z,4.00
2018-02-25T17:10:15.566Z,4.00
2018-02-25T17:12:08.651Z,0.00
2018-02-25T17:13:08.542Z,0.00
2018-02-25T17:15:01.473Z,4.00
2018-02-25T17:16:01.301Z,4.00
2018-02-25T17:17:54.197Z,0.00
2018-02-25T17:18:54.130Z,0.00
2018-02-25T17:20:46.949Z,0.00
2018-02-25T17:21:46.806Z,0.00
2018-02-25T17:23:42.190Z,0.00
2018-02-25T17:24:41.084Z,0.00
2018-02-25T17:26:34.914Z,0.00
2018-02-25T17:27:34.795Z,0.00
2018-02-25T17:29:27.731Z,0.00
2018-02-25T17:30:27.619Z,0.00
2018-02-25T17:32:20.565Z,0.00
2018-02-25T17:33:20.427Z,0.00
2018-02-25T17:35:13.804Z,0.00
2018-02-25T17:36:13.112Z,0.00
2018-02-25T17:38:06.021Z,0.00
2018-02-25T17:39:05.848Z,0.00
2018-02-25T17:40:58.739Z,0.00
2018-02-25T17:41:58.598Z,0.00
2018-02-25T17:43:51.494Z,0.00
2018-02-25T17:44:51.359Z,0.00
2018-02-25T17:46:44.248Z,0.00
2018-02-25T17:47:44.100Z,0.00
2018-02-25T17:49:36.989Z,0.00
2018-02-25T17:50:36.848Z,0.00
2018-02-25T17:52:29.702Z,0.00
2018-02-25T17:53:29.600Z,0.00
2018-02-25T17:55:24.521Z,0.00
2018-02-25T17:56:22.960Z,0.00
2018-02-25T17:58:15.824Z,0.00
2018-02-25T17:59:15.719Z,0.00
2018-02-25T18:01:08.913Z,0.00
2018-02-25T18:02:08.781Z,0.00
2018-02-25T18:04:01.634Z,0.00
2018-02-25T18:05:01.522Z,0.00
2018-02-25T18:06:54.298Z,0.00
2018-02-25T18:07:54.189Z,0.00
2018-02-25T18:09:47.184Z,0.00
2018-02-25T18:10:47.015Z,0.00
2018-02-25T18:12:39.908Z,0.00